sensor_id;sensor_type;location;lat;lon;timestamp;pressure;altitude;pressure_sealevel;temperature;humidity
80184;BME280;69682;52.138;5.440;2023-07-29T00:00:06;100805.09;;;17.53;79.39
80184;BME280;69682;52.138;5.440;2023-07-29T00:02:33;100793.47;;;17.53;79.48
80184;BME280;69682;52.138;5.440;2023-07-29T00:04:59;100788.25;;;17.51;79.45
80184;BME280;69682;52.138;5.440;2023-07-29T00:07:26;100789.75;;;17.45;79.64
80184;BME280;69682;52.138;5.440;2023-07-29T00:09:53;100788.41;;;17.41;79.54
80184;BME280;69682;52.138;5.440;2023-07-29T00:12:19;100787.53;;;17.41;79.75
80184;BME280;69682;52.138;5.440;2023-07-29T00:14:46;100779.78;;;17.38;79.80
80184;BME280;69682;52.138;5.440;2023-07-29T00:17:12;100770.53;;;17.40;79.94
80184;BME280;69682;52.138;5.440;2023-07-29T00:19:38;100773.22;;;17.40;79.93
80184;BME280;69682;52.138;5.440;2023-07-29T00:22:05;100769.69;;;17.40;79.66
80184;BME280;69682;52.138;5.440;2023-07-29T00:24:34;100767.00;;;17.40;80.03
80184;BME280;69682;52.138;5.440;2023-07-29T00:27:01;100764.50;;;17.38;80.54
80184;BME280;69682;52.138;5.440;2023-07-29T00:29:27;100759.25;;;17.37;79.89
80184;BME280;69682;52.138;5.440;2023-07-29T00:31:54;100753.34;;;17.33;80.29
80184;BME280;69682;52.138;5.440;2023-07-29T00:34:21;100750.81;;;17.32;80.25
80184;BME280;69682;52.138;5.440;2023-07-29T00:36:47;100741.75;;;17.33;80.13
80184;BME280;69682;52.138;5.440;2023-07-29T00:39:14;100730.09;;;17.32;80.35
80184;BME280;69682;52.138;5.440;2023-07-29T00:41:41;100732.13;;;17.30;80.45
80184;BME280;69682;52.138;5.440;2023-07-29T00:44:07;100740.69;;;17.25;80.40
80184;BME280;69682;52.138;5.440;2023-07-29T00:46:35;100763.00;;;17.10;80.76
80184;BME280;69682;52.138;5.440;2023-07-29T00:49:05;100760.16;;;17.11;80.60
80184;BME280;69682;52.138;5.440;2023-07-29T00:51:31;100766.06;;;17.15;81.01
80184;BME280;69682;52.138;5.440;2023-07-29T00:53:58;100761.84;;;17.12;81.27
80184;BME280;69682;52.138;5.440;2023-07-29T00:56:24;100756.97;;;17.16;80.87
80184;BME280;69682;52.138;5.440;2023-07-29T00:58:51;100751.09;;;17.20;80.95
80184;BME280;69682;52.138;5.440;2023-07-29T01:01:22;100750.94;;;17.22;80.57
80184;BME280;69682;52.138;5.440;2023-07-29T01:03:49;100738.31;;;17.22;80.87
80184;BME280;69682;52.138;5.440;2023-07-29T01:06:28;100741.84;;;17.23;80.91
80184;BME280;69682;52.138;5.440;2023-07-29T01:09:02;100739.50;;;17.20;80.55
80184;BME280;69682;52.138;5.440;2023-07-29T01:17:03;100740.78;;;17.08;81.20
80184;BME280;69682;52.138;5.440;2023-07-29T01:19:54;100751.88;;;17.05;81.19
80184;BME280;69682;52.138;5.440;2023-07-29T01:22:22;100750.69;;;16.99;81.40
80184;BME280;69682;52.138;5.440;2023-07-29T01:24:50;100748.16;;;16.97;81.72
80184;BME280;69682;52.138;5.440;2023-07-29T01:27:16;100744.41;;;16.90;81.74
80184;BME280;69682;52.138;5.440;2023-07-29T01:29:43;100742.03;;;16.87;81.85
80184;BME280;69682;52.138;5.440;2023-07-29T01:37:55;100743.56;;;16.90;81.72
80184;BME280;69682;52.138;5.440;2023-07-29T01:40:25;100745.56;;;16.88;81.97
80184;BME280;69682;52.138;5.440;2023-07-29T01:42:53;100748.44;;;16.86;81.66
80184;BME280;69682;52.138;5.440;2023-07-29T01:45:23;100743.06;;;16.86;82.07
80184;BME280;69682;52.138;5.440;2023-07-29T01:47:51;100738.00;;;16.83;81.96
80184;BME280;69682;52.138;5.440;2023-07-29T01:50:18;100739.28;;;16.79;82.42
80184;BME280;69682;52.138;5.440;2023-07-29T01:52:44;100733.53;;;16.74;82.75
80184;BME280;69682;52.138;5.440;2023-07-29T01:55:11;100737.38;;;16.71;83.06
80184;BME280;69682;52.138;5.440;2023-07-29T01:57:37;100724.47;;;16.75;83.27
80184;BME280;69682;52.138;5.440;2023-07-29T02:00:04;100730.56;;;16.77;82.90
80184;BME280;69682;52.138;5.440;2023-07-29T02:02:31;100723.34;;;16.77;83.01
80184;BME280;69682;52.138;5.440;2023-07-29T02:04:58;100723.16;;;16.79;83.32
80184;BME280;69682;52.138;5.440;2023-07-29T02:07:24;100724.31;;;16.76;83.46
80184;BME280;69682;52.138;5.440;2023-07-29T02:09:52;100721.63;;;16.76;83.79
80184;BME280;69682;52.138;5.440;2023-07-29T02:12:19;100725.19;;;16.77;83.55
80184;BME280;69682;52.138;5.440;2023-07-29T02:14:46;100720.09;;;16.74;83.76
80184;BME280;69682;52.138;5.440;2023-07-29T02:17:12;100722.09;;;16.72;83.86
80184;BME280;69682;52.138;5.440;2023-07-29T02:19:39;100713.31;;;16.70;83.93
80184;BME280;69682;52.138;5.440;2023-07-29T02:22:06;100717.72;;;16.71;84.01
80184;BME280;69682;52.138;5.440;2023-07-29T02:24:33;100712.34;;;16.71;84.18
80184;BME280;69682;52.138;5.440;2023-07-29T02:26:59;100710.50;;;16.71;83.83
80184;BME280;69682;52.138;5.440;2023-07-29T02:29:26;100707.78;;;16.71;84.10
80184;BME280;69682;52.138;5.440;2023-07-29T02:31:52;100712.81;;;16.66;84.03
80184;BME280;69682;52.138;5.440;2023-07-29T02:34:19;100714.97;;;16.63;84.69
80184;BME280;69682;52.138;5.440;2023-07-29T02:36:46;100708.59;;;16.64;84.37
80184;BME280;69682;52.138;5.440;2023-07-29T02:39:12;100715.81;;;16.63;84.34
80184;BME280;69682;52.138;5.440;2023-07-29T02:41:39;100709.91;;;16.60;84.73
80184;BME280;69682;52.138;5.440;2023-07-29T02:44:06;100704.69;;;16.58;84.81
80184;BME280;69682;52.138;5.440;2023-07-29T02:46:33;100707.22;;;16.60;84.74
80184;BME280;69682;52.138;5.440;2023-07-29T02:49:02;100705.38;;;16.60;85.02
80184;BME280;69682;52.138;5.440;2023-07-29T02:51:32;100705.38;;;16.60;84.85
80184;BME280;69682;52.138;5.440;2023-07-29T02:53:59;100702.69;;;16.60;84.91
80184;BME280;69682;52.138;5.440;2023-07-29T02:56:26;100702.16;;;16.56;84.97
80184;BME280;69682;52.138;5.440;2023-07-29T02:58:52;100700.31;;;16.57;85.22
80184;BME280;69682;52.138;5.440;2023-07-29T03:01:19;100694.94;;;16.57;84.73
80184;BME280;69682;52.138;5.440;2023-07-29T03:03:45;100698.63;;;16.56;84.87
80184;BME280;69682;52.138;5.440;2023-07-29T03:06:13;100704.16;;;16.54;85.38
80184;BME280;69682;52.138;5.440;2023-07-29T03:08:40;100698.94;;;16.53;85.01
80184;BME280;69682;52.138;5.440;2023-07-29T03:11:10;100693.56;;;16.53;85.23
80184;BME280;69682;52.138;5.440;2023-07-29T03:13:37;100686.34;;;16.53;84.72
80184;BME280;69682;52.138;5.440;2023-07-29T03:16:13;100684.66;;;16.52;85.02
80184;BME280;69682;52.138;5.440;2023-07-29T03:18:43;100676.75;;;16.51;85.02
80184;BME280;69682;52.138;5.440;2023-07-29T03:21:10;100676.56;;;16.52;84.96
80184;BME280;69682;52.138;5.440;2023-07-29T03:23:38;100687.50;;;16.51;84.96
80184;BME280;69682;52.138;5.440;2023-07-29T03:26:04;100683.81;;;16.52;84.99
80184;BME280;69682;52.138;5.440;2023-07-29T03:28:39;100686.50;;;16.52;84.74
80184;BME280;69682;52.138;5.440;2023-07-29T03:31:06;100688.66;;;16.48;85.06
80184;BME280;69682;52.138;5.440;2023-07-29T03:33:34;100692.19;;;16.49;85.10
80184;BME280;69682;52.138;5.440;2023-07-29T03:36:00;100689.69;;;16.47;84.80
80184;BME280;69682;52.138;5.440;2023-07-29T03:38:27;100697.06;;;16.45;84.67
80184;BME280;69682;52.138;5.440;2023-07-29T03:40:54;100687.78;;;16.40;85.15
80184;BME280;69682;52.138;5.440;2023-07-29T03:43:20;100682.53;;;16.38;85.07
80184;BME280;69682;52.138;5.440;2023-07-29T03:45:47;100691.09;;;16.33;85.30
80184;BME280;69682;52.138;5.440;2023-07-29T03:48:14;100688.22;;;16.35;85.02
80184;BME280;69682;52.138;5.440;2023-07-29T03:50:40;100684.72;;;16.34;85.32
80184;BME280;69682;52.138;5.440;2023-07-29T03:53:08;100697.31;;;16.34;84.89
80184;BME280;69682;52.138;5.440;2023-07-29T03:55:36;100690.09;;;16.34;85.17
80184;BME280;69682;52.138;5.440;2023-07-29T03:58:03;100691.41;;;16.30;85.27
80184;BME280;69682;52.138;5.440;2023-07-29T04:00:29;100697.63;;;16.31;85.09
80184;BME280;69682;52.138;5.440;2023-07-29T04:02:56;100699.47;;;16.30;85.11
80184;BME280;69682;52.138;5.440;2023-07-29T04:05:23;100703.16;;;16.29;85.37
80184;BME280;69682;52.138;5.440;2023-07-29T04:07:49;100697.94;;;16.28;85.15
80184;BME280;69682;52.138;5.440;2023-07-29T04:10:16;100701.47;;;16.28;84.91
80184;BME280;69682;52.138;5.440;2023-07-29T04:12:43;100698.63;;;16.30;84.60
80184;BME280;69682;52.138;5.440;2023-07-29T04:15:10;100704.47;;;16.25;84.48
80184;BME280;69682;52.138;5.440;2023-07-29T04:17:36;100705.50;;;16.24;84.54
80184;BME280;69682;52.138;5.440;2023-07-29T04:20:04;100693.91;;;16.24;84.47
80184;BME280;69682;52.138;5.440;2023-07-29T04:22:30;100696.59;;;16.24;84.50
80184;BME280;69682;52.138;5.440;2023-07-29T04:24:57;100681.28;;;16.24;83.86
80184;BME280;69682;52.138;5.440;2023-07-29T04:27:24;100674.22;;;16.23;83.83
80184;BME280;69682;52.138;5.440;2023-07-29T04:29:51;100682.28;;;16.23;83.09
80184;BME280;69682;52.138;5.440;2023-07-29T04:32:17;100681.44;;;16.23;83.23
80184;BME280;69682;52.138;5.440;2023-07-29T04:34:44;100687.81;;;16.22;82.88
80184;BME280;69682;52.138;5.440;2023-07-29T04:37:11;100696.91;;;16.21;82.93
80184;BME280;69682;52.138;5.440;2023-07-29T04:39:37;100694.03;;;16.22;82.74
80184;BME280;69682;52.138;5.440;2023-07-29T04:42:05;100698.56;;;16.22;82.40
80184;BME280;69682;52.138;5.440;2023-07-29T04:44:32;100691.53;;;16.21;82.55
80184;BME280;69682;52.138;5.440;2023-07-29T04:46:58;100700.56;;;16.20;82.58
80184;BME280;69682;52.138;5.440;2023-07-29T04:49:25;100697.03;;;16.19;82.38
80184;BME280;69682;52.138;5.440;2023-07-29T04:51:52;100692.69;;;16.18;82.31
80184;BME280;69682;52.138;5.440;2023-07-29T04:54:18;100698.19;;;16.17;82.22
80184;BME280;69682;52.138;5.440;2023-07-29T04:56:47;100695.69;;;16.15;81.89
80184;BME280;69682;52.138;5.440;2023-07-29T04:59:13;100701.06;;;16.15;82.32
80184;BME280;69682;52.138;5.440;2023-07-29T05:01:40;100700.34;;;16.13;82.48
80184;BME280;69682;52.138;5.440;2023-07-29T05:04:09;100697.66;;;16.13;82.13
80184;BME280;69682;52.138;5.440;2023-07-29T05:06:35;100696.84;;;16.12;82.10
80184;BME280;69682;52.138;5.440;2023-07-29T05:09:16;100712.66;;;16.16;82.15
80184;BME280;69682;52.138;5.440;2023-07-29T05:11:44;100714.19;;;16.18;82.21
80184;BME280;69682;52.138;5.440;2023-07-29T05:14:13;100708.81;;;16.18;82.29
80184;BME280;69682;52.138;5.440;2023-07-29T05:16:39;100721.22;;;16.19;81.89
80184;BME280;69682;52.138;5.440;2023-07-29T05:19:06;100717.53;;;16.20;82.16
80184;BME280;69682;52.138;5.440;2023-07-29T05:21:33;100715.72;;;16.21;82.10
80184;BME280;69682;52.138;5.440;2023-07-29T05:24:00;100721.94;;;16.21;82.41
80184;BME280;69682;52.138;5.440;2023-07-29T05:26:26;100722.91;;;16.20;81.92
80184;BME280;69682;52.138;5.440;2023-07-29T05:28:53;100717.41;;;16.22;82.22
80184;BME280;69682;52.138;5.440;2023-07-29T05:31:19;100722.78;;;16.22;82.32
80184;BME280;69682;52.138;5.440;2023-07-29T05:33:46;100721.44;;;16.26;82.20
80184;BME280;69682;52.138;5.440;2023-07-29T05:36:13;100708.19;;;16.24;82.15
80184;BME280;69682;52.138;5.440;2023-07-29T05:38:39;100720.59;;;16.25;82.22
80184;BME280;69682;52.138;5.440;2023-07-29T05:41:06;100724.00;;;16.27;82.18
80184;BME280;69682;52.138;5.440;2023-07-29T05:43:33;100725.53;;;16.30;82.35
80184;BME280;69682;52.138;5.440;2023-07-29T05:45:59;100732.25;;;16.34;82.20
80184;BME280;69682;52.138;5.440;2023-07-29T05:48:26;100735.66;;;16.36;82.13
80184;BME280;69682;52.138;5.440;2023-07-29T05:50:53;100744.06;;;16.41;82.50
80184;BME280;69682;52.138;5.440;2023-07-29T05:53:20;100733.16;;;16.43;82.03
80184;BME280;69682;52.138;5.440;2023-07-29T05:55:46;100734.69;;;16.45;82.15
80184;BME280;69682;52.138;5.440;2023-07-29T05:58:13;100739.91;;;16.47;82.11
80184;BME280;69682;52.138;5.440;2023-07-29T06:00:39;100723.78;;;16.47;82.38
80184;BME280;69682;52.138;5.440;2023-07-29T06:03:06;100737.59;;;16.52;82.28
80184;BME280;69682;52.138;5.440;2023-07-29T06:05:33;100731.38;;;16.51;82.04
80184;BME280;69682;52.138;5.440;2023-07-29T06:07:59;100726.69;;;16.53;82.08
80184;BME280;69682;52.138;5.440;2023-07-29T06:10:26;100728.22;;;16.56;82.32
80184;BME280;69682;52.138;5.440;2023-07-29T06:12:53;100728.88;;;16.58;82.35
80184;BME280;69682;52.138;5.440;2023-07-29T06:15:19;100732.09;;;16.62;82.21
80184;BME280;69682;52.138;5.440;2023-07-29T06:17:49;100725.56;;;16.64;82.34
80184;BME280;69682;52.138;5.440;2023-07-29T06:20:16;100719.72;;;16.69;82.09
80184;BME280;69682;52.138;5.440;2023-07-29T06:22:42;100723.47;;;16.76;82.00
80184;BME280;69682;52.138;5.440;2023-07-29T06:25:12;100729.91;;;16.83;81.89
80184;BME280;69682;52.138;5.440;2023-07-29T06:27:38;100724.88;;;16.88;82.10
80184;BME280;69682;52.138;5.440;2023-07-29T06:30:08;100725.25;;;16.93;81.95
80184;BME280;69682;52.138;5.440;2023-07-29T06:32:35;100730.31;;;16.96;81.62
80184;BME280;69682;52.138;5.440;2023-07-29T06:35:02;100727.47;;;16.98;81.82
80184;BME280;69682;52.138;5.440;2023-07-29T06:37:29;100731.84;;;16.99;81.79
80184;BME280;69682;52.138;5.440;2023-07-29T06:39:55;100736.06;;;17.01;81.69
80184;BME280;69682;52.138;5.440;2023-07-29T06:42:22;100731.38;;;17.03;82.26
80184;BME280;69682;52.138;5.440;2023-07-29T06:44:48;100728.34;;;17.07;81.81
80184;BME280;69682;52.138;5.440;2023-07-29T06:47:15;100728.03;;;17.10;81.71
80184;BME280;69682;52.138;5.440;2023-07-29T06:49:42;100738.63;;;17.11;81.71
80184;BME280;69682;52.138;5.440;2023-07-29T06:52:08;100745.53;;;17.14;81.53
80184;BME280;69682;52.138;5.440;2023-07-29T06:54:35;100738.66;;;17.19;81.53
80184;BME280;69682;52.138;5.440;2023-07-29T06:57:02;100744.75;;;17.30;82.04
80184;BME280;69682;52.138;5.440;2023-07-29T06:59:28;100744.63;;;17.39;81.37
80184;BME280;69682;52.138;5.440;2023-07-29T07:01:55;100747.81;;;17.43;81.34
80184;BME280;69682;52.138;5.440;2023-07-29T07:04:22;100746.66;;;17.45;81.38
80184;BME280;69682;52.138;5.440;2023-07-29T07:06:48;100748.34;;;17.46;80.94
80184;BME280;69682;52.138;5.440;2023-07-29T07:09:15;100751.56;;;17.50;81.06
80184;BME280;69682;52.138;5.440;2023-07-29T07:11:42;100741.63;;;17.51;80.74
80184;BME280;69682;52.138;5.440;2023-07-29T07:14:08;100744.50;;;17.57;80.79
80184;BME280;69682;52.138;5.440;2023-07-29T07:16:35;100750.38;;;17.61;80.68
80184;BME280;69682;52.138;5.440;2023-07-29T07:19:04;100752.94;;;17.62;80.49
80184;BME280;69682;52.138;5.440;2023-07-29T07:21:31;100752.75;;;17.64;80.68
80184;BME280;69682;52.138;5.440;2023-07-29T07:23:59;100751.91;;;17.63;80.70
80184;BME280;69682;52.138;5.440;2023-07-29T07:26:25;100749.22;;;17.63;80.65
80184;BME280;69682;52.138;5.440;2023-07-29T07:28:52;100754.59;;;17.63;80.96
80184;BME280;69682;52.138;5.440;2023-07-29T07:31:19;100756.13;;;17.66;80.84
80184;BME280;69682;52.138;5.440;2023-07-29T07:33:46;100756.97;;;17.66;81.19
80184;BME280;69682;52.138;5.440;2023-07-29T07:36:12;100760.19;;;17.70;80.86
80184;BME280;69682;52.138;5.440;2023-07-29T07:38:39;100757.47;;;17.70;80.67
80184;BME280;69682;52.138;5.440;2023-07-29T07:41:06;100764.25;;;17.74;80.86
80184;BME280;69682;52.138;5.440;2023-07-29T07:43:32;100758.38;;;17.79;80.77
80184;BME280;69682;52.138;5.440;2023-07-29T07:46:00;100758.22;;;17.80;80.41
80184;BME280;69682;52.138;5.440;2023-07-29T07:48:28;100763.59;;;17.80;80.33
80184;BME280;69682;52.138;5.440;2023-07-29T07:50:54;100756.34;;;17.81;80.26
80184;BME280;69682;52.138;5.440;2023-07-29T07:53:21;100758.25;;;17.88;80.55
80184;BME280;69682;52.138;5.440;2023-07-29T07:55:47;100756.53;;;17.96;80.25
80184;BME280;69682;52.138;5.440;2023-07-29T07:58:14;100758.41;;;18.03;80.15
80184;BME280;69682;52.138;5.440;2023-07-29T08:00:41;100761.09;;;18.11;79.69
80184;BME280;69682;52.138;5.440;2023-07-29T08:03:07;100759.44;;;18.19;79.91
80184;BME280;69682;52.138;5.440;2023-07-29T08:05:34;100762.63;;;18.22;80.05
80184;BME280;69682;52.138;5.440;2023-07-29T08:08:00;100764.63;;;18.20;79.53
80184;BME280;69682;52.138;5.440;2023-07-29T08:10:27;100763.66;;;18.21;79.87
80184;BME280;69682;52.138;5.440;2023-07-29T08:12:53;100768.38;;;18.27;79.59
80184;BME280;69682;52.138;5.440;2023-07-29T08:15:20;100759.94;;;18.30;79.20
80184;BME280;69682;52.138;5.440;2023-07-29T08:17:46;100765.47;;;18.37;78.37
80184;BME280;69682;52.138;5.440;2023-07-29T08:20:13;100761.09;;;18.44;78.63
80184;BME280;69682;52.138;5.440;2023-07-29T08:22:40;100765.47;;;18.53;78.57
80184;BME280;69682;52.138;5.440;2023-07-29T08:25:06;100766.47;;;18.60;77.88
80184;BME280;69682;52.138;5.440;2023-07-29T08:27:33;100760.06;;;18.61;77.83
80184;BME280;69682;52.138;5.440;2023-07-29T08:30:01;100768.97;;;18.70;77.86
80184;BME280;69682;52.138;5.440;2023-07-29T08:32:27;100762.75;;;18.78;77.32
80184;BME280;69682;52.138;5.440;2023-07-29T08:34:54;100769.00;;;18.78;76.61
80184;BME280;69682;52.138;5.440;2023-07-29T08:37:21;100770.50;;;18.73;76.48
80184;BME280;69682;52.138;5.440;2023-07-29T08:39:47;100770.16;;;18.68;76.79
80184;BME280;69682;52.138;5.440;2023-07-29T08:42:18;100769.16;;;18.60;76.98
80184;BME280;69682;52.138;5.440;2023-07-29T08:44:48;100761.06;;;18.60;77.04
80184;BME280;69682;52.138;5.440;2023-07-29T08:47:15;100765.44;;;18.61;77.08
80184;BME280;69682;52.138;5.440;2023-07-29T08:49:45;100769.66;;;18.64;77.44
80184;BME280;69682;52.138;5.440;2023-07-29T08:52:12;100767.66;;;18.66;77.42
80184;BME280;69682;52.138;5.440;2023-07-29T08:54:40;100768.47;;;18.67;77.01
80184;BME280;69682;52.138;5.440;2023-07-29T08:57:07;100764.59;;;18.69;76.47
80184;BME280;69682;52.138;5.440;2023-07-29T08:59:33;100755.66;;;18.69;76.62
80184;BME280;69682;52.138;5.440;2023-07-29T09:02:03;100765.28;;;18.71;76.64
80184;BME280;69682;52.138;5.440;2023-07-29T09:04:30;100772.22;;;18.74;75.90
80184;BME280;69682;52.138;5.440;2023-07-29T09:06:58;100773.91;;;18.75;76.07
80184;BME280;69682;52.138;5.440;2023-07-29T09:09:25;100772.53;;;18.79;76.14
80184;BME280;69682;52.138;5.440;2023-07-29T09:11:52;100775.56;;;18.84;76.37
80184;BME280;69682;52.138;5.440;2023-07-29T09:14:19;100776.75;;;18.81;75.48
80184;BME280;69682;52.138;5.440;2023-07-29T09:16:46;100777.44;;;18.83;76.52
80184;BME280;69682;52.138;5.440;2023-07-29T09:19:12;100776.19;;;19.02;76.15
80184;BME280;69682;52.138;5.440;2023-07-29T09:21:40;100771.06;;;19.24;75.45
80184;BME280;69682;52.138;5.440;2023-07-29T09:24:07;100775.44;;;19.25;74.71
80184;BME280;69682;52.138;5.440;2023-07-29T09:26:34;100769.53;;;19.21;74.17
80184;BME280;69682;52.138;5.440;2023-07-29T09:29:01;100768.72;;;19.21;74.40
80184;BME280;69682;52.138;5.440;2023-07-29T09:31:29;100767.50;;;19.23;74.49
80184;BME280;69682;52.138;5.440;2023-07-29T09:34:01;100766.16;;;19.27;74.08
80184;BME280;69682;52.138;5.440;2023-07-29T09:36:31;100764.44;;;19.26;73.97
80184;BME280;69682;52.138;5.440;2023-07-29T09:38:58;100769.53;;;19.21;74.57
80184;BME280;69682;52.138;5.440;2023-07-29T09:41:27;100765.50;;;19.17;74.36
80184;BME280;69682;52.138;5.440;2023-07-29T09:43:59;100772.94;;;19.15;74.15
80184;BME280;69682;52.138;5.440;2023-07-29T09:46:34;100770.91;;;19.17;75.02
80184;BME280;69682;52.138;5.440;2023-07-29T09:49:06;100773.75;;;19.24;74.36
80184;BME280;69682;52.138;5.440;2023-07-29T09:51:40;100765.59;;;19.32;73.95
80184;BME280;69682;52.138;5.440;2023-07-29T09:54:07;100771.31;;;19.37;74.43
80184;BME280;69682;52.138;5.440;2023-07-29T09:56:39;100767.94;;;19.35;73.87
80184;BME280;69682;52.138;5.440;2023-07-29T09:59:07;100774.06;;;19.29;74.30
80184;BME280;69682;52.138;5.440;2023-07-29T10:01:33;100770.06;;;19.17;74.68
80184;BME280;69682;52.138;5.440;2023-07-29T10:04:03;100787.50;;;19.06;77.01
80184;BME280;69682;52.138;5.440;2023-07-29T10:06:30;100795.78;;;18.88;77.22
80184;BME280;69682;52.138;5.440;2023-07-29T10:08:59;100781.28;;;18.65;79.60
80184;BME280;69682;52.138;5.440;2023-07-29T10:11:26;100782.00;;;18.50;80.13
80184;BME280;69682;52.138;5.440;2023-07-29T10:13:52;100777.44;;;18.34;80.47
80184;BME280;69682;52.138;5.440;2023-07-29T10:16:35;100783.88;;;18.33;82.19
80184;BME280;69682;52.138;5.440;2023-07-29T10:19:04;100786.91;;;18.38;82.75
80184;BME280;69682;52.138;5.440;2023-07-29T10:21:31;100777.44;;;18.43;83.06
80184;BME280;69682;52.138;5.440;2023-07-29T10:24:01;100783.53;;;18.45;83.19
80184;BME280;69682;52.138;5.440;2023-07-29T10:26:31;100784.19;;;18.47;83.90
80184;BME280;69682;52.138;5.440;2023-07-29T10:28:59;100781.47;;;18.47;83.30
80184;BME280;69682;52.138;5.440;2023-07-29T10:31:31;100793.78;;;18.41;82.88
80184;BME280;69682;52.138;5.440;2023-07-29T10:33:58;100794.31;;;18.36;81.16
80184;BME280;69682;52.138;5.440;2023-07-29T10:36:25;100793.81;;;18.33;82.67
80184;BME280;69682;52.138;5.440;2023-07-29T10:38:52;100793.28;;;18.29;83.38
80184;BME280;69682;52.138;5.440;2023-07-29T10:41:19;100796.69;;;18.39;84.12
80184;BME280;69682;52.138;5.440;2023-07-29T10:43:46;100805.75;;;18.47;84.02
80184;BME280;69682;52.138;5.440;2023-07-29T10:46:22;100800.38;;;18.47;83.78
80184;BME280;69682;52.138;5.440;2023-07-29T10:53:52;100784.19;;;18.55;84.15
80184;BME280;69682;52.138;5.440;2023-07-29T10:56:33;100773.38;;;18.55;83.74
80184;BME280;69682;52.138;5.440;2023-07-29T11:01:57;100782.50;;;18.54;84.43
80184;BME280;69682;52.138;5.440;2023-07-29T11:17:50;100798.53;;;18.80;82.13
80184;BME280;69682;52.138;5.440;2023-07-29T11:20:20;100801.91;;;18.74;82.36
80184;BME280;69682;52.138;5.440;2023-07-29T11:22:48;100804.41;;;18.67;82.22
80184;BME280;69682;52.138;5.440;2023-07-29T11:25:16;100807.28;;;18.66;81.94
80184;BME280;69682;52.138;5.440;2023-07-29T11:27:44;100802.03;;;18.64;82.40
80184;BME280;69682;52.138;5.440;2023-07-29T11:30:13;100802.03;;;18.64;82.27
80184;BME280;69682;52.138;5.440;2023-07-29T11:32:42;100809.66;;;18.60;82.54
80184;BME280;69682;52.138;5.440;2023-07-29T11:35:11;100799.34;;;18.56;82.65
80184;BME280;69682;52.138;5.440;2023-07-29T11:37:38;100798.53;;;18.47;82.37
80184;BME280;69682;52.138;5.440;2023-07-29T11:40:06;100799.53;;;18.38;83.17
80184;BME280;69682;52.138;5.440;2023-07-29T11:42:33;100793.47;;;18.36;82.25
80184;BME280;69682;52.138;5.440;2023-07-29T11:45:02;100798.19;;;18.34;82.55
80184;BME280;69682;52.138;5.440;2023-07-29T11:47:31;100800.38;;;18.30;83.00
80184;BME280;69682;52.138;5.440;2023-07-29T11:49:58;100800.53;;;18.29;83.31
80184;BME280;69682;52.138;5.440;2023-07-29T11:52:27;100801.56;;;18.28;83.01
80184;BME280;69682;52.138;5.440;2023-07-29T11:54:54;100799.38;;;18.31;83.64
80184;BME280;69682;52.138;5.440;2023-07-29T11:57:21;100791.97;;;18.33;84.13
80184;BME280;69682;52.138;5.440;2023-07-29T11:59:48;100800.56;;;18.37;83.67
80184;BME280;69682;52.138;5.440;2023-07-29T12:02:19;100806.63;;;18.47;83.94
80184;BME280;69682;52.138;5.440;2023-07-29T12:04:47;100797.69;;;18.55;83.65
80184;BME280;69682;52.138;5.440;2023-07-29T12:07:16;100803.75;;;18.73;83.92
80184;BME280;69682;52.138;5.440;2023-07-29T12:09:43;100804.75;;;18.89;83.11
80184;BME280;69682;52.138;5.440;2023-07-29T12:12:10;100803.22;;;18.94;82.41
80184;BME280;69682;52.138;5.440;2023-07-29T12:14:36;100794.16;;;19.26;82.93
80184;BME280;69682;52.138;5.440;2023-07-29T12:17:05;100795.38;;;19.55;81.47
80184;BME280;69682;52.138;5.440;2023-07-29T12:19:33;100793.84;;;19.69;80.10
80184;BME280;69682;52.138;5.440;2023-07-29T12:22:06;100783.63;;;19.79;81.20
80184;BME280;69682;52.138;5.440;2023-07-29T12:24:34;100784.19;;;19.98;79.66
80184;BME280;69682;52.138;5.440;2023-07-29T12:27:01;100788.81;;;19.89;78.93
80184;BME280;69682;52.138;5.440;2023-07-29T12:29:28;100783.94;;;19.84;78.87
80184;BME280;69682;52.138;5.440;2023-07-29T12:32:02;100784.91;;;19.91;80.92
80184;BME280;69682;52.138;5.440;2023-07-29T12:34:30;100776.59;;;19.93;79.21
80184;BME280;69682;52.138;5.440;2023-07-29T12:36:59;100786.84;;;19.83;80.02
80184;BME280;69682;52.138;5.440;2023-07-29T12:39:30;100787.88;;;19.73;78.92
80184;BME280;69682;52.138;5.440;2023-07-29T12:41:58;100787.59;;;19.68;79.66
80184;BME280;69682;52.138;5.440;2023-07-29T12:44:30;100793.78;;;19.77;79.77
80184;BME280;69682;52.138;5.440;2023-07-29T12:46:57;100781.06;;;19.86;79.92
80184;BME280;69682;52.138;5.440;2023-07-29T12:49:24;100783.78;;;19.86;79.16
80184;BME280;69682;52.138;5.440;2023-07-29T12:51:51;100790.50;;;19.90;78.77
80184;BME280;69682;52.138;5.440;2023-07-29T12:54:17;100793.56;;;19.87;78.46
80184;BME280;69682;52.138;5.440;2023-07-29T12:56:44;100793.91;;;19.84;78.56
80184;BME280;69682;52.138;5.440;2023-07-29T12:59:10;100786.47;;;19.86;76.74
80184;BME280;69682;52.138;5.440;2023-07-29T13:01:37;100779.94;;;20.03;77.58
80184;BME280;69682;52.138;5.440;2023-07-29T13:04:04;100783.34;;;20.20;77.95
80184;BME280;69682;52.138;5.440;2023-07-29T13:06:30;100781.97;;;20.24;76.96
80184;BME280;69682;52.138;5.440;2023-07-29T13:08:58;100776.72;;;20.23;76.65
80184;BME280;69682;52.138;5.440;2023-07-29T13:11:24;100785.50;;;20.48;78.12
80184;BME280;69682;52.138;5.440;2023-07-29T13:13:52;100775.28;;;20.73;75.75
80184;BME280;69682;52.138;5.440;2023-07-29T13:16:19;100782.50;;;20.80;74.78
80184;BME280;69682;52.138;5.440;2023-07-29T13:18:46;100775.19;;;20.81;74.76
80184;BME280;69682;52.138;5.440;2023-07-29T13:21:12;100769.41;;;20.84;74.56
80184;BME280;69682;52.138;5.440;2023-07-29T13:23:39;100755.31;;;21.03;74.83